Arcola, MO (65603)

10:31 AM CDT on July 04, 2015 (GMT -0500)
Greenfield West (WOHSN) | | Change Station
CLOSE
Current Station
Personal Weather Station
Location: Greenfield, MO
Elevation: 1066 ft
Nearby Weather Stations

Elev 1066 ft 37.42 °N, 93.85 °W | Updated 6 minutes ago

Clear
Clear
77.4 °F
Feels Like 79 °F
N
0.0
Wind Variable Wind from ESE

Today
High -- | Low -- °F
--% Chance of Precip.
Yesterday
High -- | Low -- °F
Precip. -- in
5:59 AM 8:40 PM
Waning Gibbous, 92% visible
Pressure 29.99 in
Visibility 10.0 miles
Clouds Clear
Heat Index 79 °F
Dew Point 70 °F
Humidity 77%
Rainfall 0.00 in
Snow Depth Not available.
UV 6 out of 12
Pollen 3.60 out of 12
Air Quality Not available.
Flu Activity Not available.
METAR KSGF 041452Z 13006KT 10SM CLR 25/18 A3002 RMK AO2 SLP154 T02500178 51009

More Conditions Fewer Conditions

Pressure 29.99 in
Visibility 10.0 miles
Clouds Clear
Heat Index 79 °F
Dew Point 70 °F
Humidity 77%
Rainfall 0.00 in
Snow Depth Not available.
UV 6 out of 12
Pollen 3.60 out of 12
Air Quality Not available.
Flu Activity Not available.
METAR KSGF 041452Z 13006KT 10SM CLR 25/18 A3002 RMK AO2 SLP154 T02500178 51009

More Conditions Fewer Conditions

10-Day Weather Forecast

×

Almanac

Astronomy

Jul. 04, 2015 Rise Set
Actual Time
Civil Twilight
Nautical Twilight
Astronomical Twilight
Moon
Length of Visible Light
Length of Day
Tomorrow will be .
, % of the Moon is Illuminated

Today's Extremes

State Highs State Lows

Community

WunderPhotos

Upload Photos

1,834,987 photos uploaded!

WunderBlogs® & News

Nearby

Air Quality

  Air Quality AQ Index Pollutant
Not available.

Snow Depth

Station Depth Elevation

Earthquake Activity

City Distance Mag. Time & Date
Minimum magnitude displayed is 2.5.

Coastal Water Temperatures

Place Temperature

Stations

Nearby Weather Stations

Station Location Temp. Windchill Dew Point Humidity Wind Precip. Elev Updated Type